KBYH/BYH METAR and TAF weather

Enter ICAO airport designator
Station Type Date Time Source
KBYH METAR 2020/03/31 21:58 UTC NOAA

KBYH 312158Z 30008KT 10SM SCT040 SCT060 18/09 A2992 RMK LAST


Station Type Date Time Source
KBYH Decoded METAR 2020/03/31 21:58 UTC NOAA

Eaker Air Force Base, AR, United States (KBYH) 35-58N 089-57W
Mar 31, 2020 - 05:58 PM EDT / 2020.03.31 2158 UTC
Wind: from the WNW (300 degrees) at 9 MPH (8 KT):0
Visibility: 10 mile(s):0
Sky conditions: partly cloudy
Temperature: 64 F (18 C)
Dew Point: 48 F (9 C)
Relative Humidity: 55%
Pressure (altimeter): 29.92 in. Hg (1013 hPa)
ob: KBYH 312158Z 30008KT 10SM SCT040 SCT060 18/09 A2992 RMK LAST
cycle: 22

Station Type Date Time Source
KBYH TAF UTC NOAA

Error!

Example: see airport list